<?xml version="1.0" encoding="UTF-8" standalone="no" ?>
<gpx xmlns="http://www.topografix.com/GPX/1/1" xmlns:xsi="http://www.w3.org/2001/XMLSchema-instance" xsi:schemaLocation="http://www.topografix.com/GPX/1/1 http://www.topografix.com/GPX/1/1/gpx.xsd" version="1.1" creator="VisuGPX - https://www.visugpx.com">
  <metadata>
    <name>120701 Villeneuve-sur-Yonne 89500</name>
    <desc><![CDATA[Petite promenade autour du bois de Saint Martin surplombant la ville.]]></desc>
  </metadata>
  <trk>
    <name><![CDATA[120701 Villeneuve-sur-Yonne 89500_1]]></name>
    <trkseg>
      <trkpt lat="48.08527" lon="3.29331">
        <ele>41.834335</ele>
        <time>2012-07-01T12:08:56Z</time>
      </trkpt>
      <trkpt lat="48.08545" lon="3.2931">
        <ele>66.345245</ele>
        <time>2012-07-01T12:09:34Z</time>
      </trkpt>
      <trkpt lat="48.08567" lon="3.29321">
        <ele>68.36248</ele>
        <time>2012-07-01T12:10:07Z</time>
      </trkpt>
      <trkpt lat="48.08575" lon="3.29359">
        <ele>63.971504</ele>
        <time>2012-07-01T12:10:36Z</time>
      </trkpt>
      <trkpt lat="48.08579" lon="3.29395">
        <ele>80.207199</ele>
        <time>2012-07-01T12:11:06Z</time>
      </trkpt>
      <trkpt lat="48.08561" lon="3.29428">
        <ele>68.684235</ele>
        <time>2012-07-01T12:11:18Z</time>
      </trkpt>
      <trkpt lat="48.08549" lon="3.29457">
        <ele>67.130882</ele>
        <time>2012-07-01T12:11:34Z</time>
      </trkpt>
      <trkpt lat="48.08539" lon="3.29492">
        <ele>60.350037</ele>
        <time>2012-07-01T12:11:53Z</time>
      </trkpt>
      <trkpt lat="48.08535" lon="3.29533">
        <ele>61.481567</ele>
        <time>2012-07-01T12:12:16Z</time>
      </trkpt>
      <trkpt lat="48.08534" lon="3.29569">
        <ele>60.628143</ele>
        <time>2012-07-01T12:12:29Z</time>
      </trkpt>
      <trkpt lat="48.08536" lon="3.29604">
        <ele>73.020088</ele>
        <time>2012-07-01T12:12:58Z</time>
      </trkpt>
      <trkpt lat="48.08543" lon="3.29638">
        <ele>71.747948</ele>
        <time>2012-07-01T12:13:12Z</time>
      </trkpt>
      <trkpt lat="48.08537" lon="3.29671">
        <ele>68.181236</ele>
        <time>2012-07-01T12:13:27Z</time>
      </trkpt>
      <trkpt lat="48.08535" lon="3.29708">
        <ele>71.112999</ele>
        <time>2012-07-01T12:13:49Z</time>
      </trkpt>
      <trkpt lat="48.08529" lon="3.29743">
        <ele>57.763252</ele>
        <time>2012-07-01T12:14:12Z</time>
      </trkpt>
      <trkpt lat="48.08517" lon="3.29773">
        <ele>56.636238</ele>
        <time>2012-07-01T12:14:50Z</time>
      </trkpt>
      <trkpt lat="48.08511" lon="3.29806">
        <ele>70.310982</ele>
        <time>2012-07-01T12:15:09Z</time>
      </trkpt>
      <trkpt lat="48.08498" lon="3.29835">
        <ele>68.480019</ele>
        <time>2012-07-01T12:15:20Z</time>
      </trkpt>
      <trkpt lat="48.08484" lon="3.29862">
        <ele>69.371689</ele>
        <time>2012-07-01T12:15:40Z</time>
      </trkpt>
      <trkpt lat="48.08467" lon="3.29887">
        <ele>65.618057</ele>
        <time>2012-07-01T12:16:02Z</time>
      </trkpt>
      <trkpt lat="48.08452" lon="3.29914">
        <ele>71.922424</ele>
        <time>2012-07-01T12:16:17Z</time>
      </trkpt>
      <trkpt lat="48.08469" lon="3.29937">
        <ele>65.484261</ele>
        <time>2012-07-01T12:16:39Z</time>
      </trkpt>
      <trkpt lat="48.08486" lon="3.2996">
        <ele>65.091782</ele>
        <time>2012-07-01T12:16:54Z</time>
      </trkpt>
      <trkpt lat="48.08504" lon="3.29979">
        <ele>64.727371</ele>
        <time>2012-07-01T12:17:13Z</time>
      </trkpt>
      <trkpt lat="48.08525" lon="3.29995">
        <ele>67.248344</ele>
        <time>2012-07-01T12:17:32Z</time>
      </trkpt>
      <trkpt lat="48.08549" lon="3.29999">
        <ele>67.983505</ele>
        <time>2012-07-01T12:17:52Z</time>
      </trkpt>
      <trkpt lat="48.08571" lon="3.30008">
        <ele>67.304764</ele>
        <time>2012-07-01T12:18:14Z</time>
      </trkpt>
      <trkpt lat="48.08587" lon="3.29984">
        <ele>75.559837</ele>
        <time>2012-07-01T12:18:30Z</time>
      </trkpt>
      <trkpt lat="48.08593" lon="3.29951">
        <ele>82.127136</ele>
        <time>2012-07-01T12:18:49Z</time>
      </trkpt>
      <trkpt lat="48.08602" lon="3.29917">
        <ele>76.592384</ele>
        <time>2012-07-01T12:19:07Z</time>
      </trkpt>
      <trkpt lat="48.08607" lon="3.29883">
        <ele>74.488701</ele>
        <time>2012-07-01T12:19:23Z</time>
      </trkpt>
      <trkpt lat="48.08613" lon="3.29851">
        <ele>83.272537</ele>
        <time>2012-07-01T12:19:43Z</time>
      </trkpt>
      <trkpt lat="48.08636" lon="3.29862">
        <ele>69.472008</ele>
        <time>2012-07-01T12:20:17Z</time>
      </trkpt>
      <trkpt lat="48.08658" lon="3.29887">
        <ele>55.615395</ele>
        <time>2012-07-01T12:21:08Z</time>
      </trkpt>
      <trkpt lat="48.0868" lon="3.29901">
        <ele>59.216187</ele>
        <time>2012-07-01T12:21:23Z</time>
      </trkpt>
      <trkpt lat="48.087" lon="3.29918">
        <ele>72.421181</ele>
        <time>2012-07-01T12:21:38Z</time>
      </trkpt>
      <trkpt lat="48.0872" lon="3.29936">
        <ele>71.004456</ele>
        <time>2012-07-01T12:21:55Z</time>
      </trkpt>
      <trkpt lat="48.08739" lon="3.29956">
        <ele>66.045258</ele>
        <time>2012-07-01T12:22:15Z</time>
      </trkpt>
      <trkpt lat="48.08756" lon="3.29981">
        <ele>65.235939</ele>
        <time>2012-07-01T12:22:36Z</time>
      </trkpt>
      <trkpt lat="48.08776" lon="3.30006">
        <ele>68.456833</ele>
        <time>2012-07-01T12:23:17Z</time>
      </trkpt>
      <trkpt lat="48.08788" lon="3.30037">
        <ele>68.230995</ele>
        <time>2012-07-01T12:23:33Z</time>
      </trkpt>
      <trkpt lat="48.0877" lon="3.30059">
        <ele>73.075867</ele>
        <time>2012-07-01T12:24:04Z</time>
      </trkpt>
      <trkpt lat="48.08752" lon="3.30082">
        <ele>70.578835</ele>
        <time>2012-07-01T12:24:24Z</time>
      </trkpt>
      <trkpt lat="48.08731" lon="3.30099">
        <ele>81.808502</ele>
        <time>2012-07-01T12:24:45Z</time>
      </trkpt>
      <trkpt lat="48.08714" lon="3.30121">
        <ele>83.0327</ele>
        <time>2012-07-01T12:25:05Z</time>
      </trkpt>
      <trkpt lat="48.08693" lon="3.30136">
        <ele>91.451859</ele>
        <time>2012-07-01T12:25:26Z</time>
      </trkpt>
      <trkpt lat="48.08678" lon="3.30165">
        <ele>77.550949</ele>
        <time>2012-07-01T12:25:49Z</time>
      </trkpt>
      <trkpt lat="48.08677" lon="3.302">
        <ele>79.243652</ele>
        <time>2012-07-01T12:26:10Z</time>
      </trkpt>
      <trkpt lat="48.08674" lon="3.30236">
        <ele>83.150864</ele>
        <time>2012-07-01T12:26:31Z</time>
      </trkpt>
      <trkpt lat="48.08666" lon="3.30268">
        <ele>89.667862</ele>
        <time>2012-07-01T12:26:56Z</time>
      </trkpt>
      <trkpt lat="48.0868" lon="3.30296">
        <ele>93.202316</ele>
        <time>2012-07-01T12:27:23Z</time>
      </trkpt>
      <trkpt lat="48.08701" lon="3.30309">
        <ele>102.846786</ele>
        <time>2012-07-01T12:27:43Z</time>
      </trkpt>
      <trkpt lat="48.08725" lon="3.30316">
        <ele>94.004288</ele>
        <time>2012-07-01T12:28:03Z</time>
      </trkpt>
      <trkpt lat="48.08747" lon="3.30324">
        <ele>93.225067</ele>
        <time>2012-07-01T12:28:26Z</time>
      </trkpt>
      <trkpt lat="48.08763" lon="3.30349">
        <ele>102.459747</ele>
        <time>2012-07-01T12:29:26Z</time>
      </trkpt>
      <trkpt lat="48.08778" lon="3.30375">
        <ele>100.356384</ele>
        <time>2012-07-01T12:29:48Z</time>
      </trkpt>
      <trkpt lat="48.08792" lon="3.30403">
        <ele>100.588562</ele>
        <time>2012-07-01T12:30:10Z</time>
      </trkpt>
      <trkpt lat="48.08805" lon="3.30431">
        <ele>104.384811</ele>
        <time>2012-07-01T12:30:32Z</time>
      </trkpt>
      <trkpt lat="48.08822" lon="3.30456">
        <ele>103.42009</ele>
        <time>2012-07-01T12:30:55Z</time>
      </trkpt>
      <trkpt lat="48.08834" lon="3.30484">
        <ele>103.402786</ele>
        <time>2012-07-01T12:31:13Z</time>
      </trkpt>
      <trkpt lat="48.08848" lon="3.30512">
        <ele>105.574722</ele>
        <time>2012-07-01T12:31:33Z</time>
      </trkpt>
      <trkpt lat="48.08863" lon="3.30538">
        <ele>100.132996</ele>
        <time>2012-07-01T12:31:54Z</time>
      </trkpt>
      <trkpt lat="48.08878" lon="3.30564">
        <ele>95.768936</ele>
        <time>2012-07-01T12:32:13Z</time>
      </trkpt>
      <trkpt lat="48.08889" lon="3.30594">
        <ele>108.940186</ele>
        <time>2012-07-01T12:32:32Z</time>
      </trkpt>
      <trkpt lat="48.08894" lon="3.30627">
        <ele>118.469254</ele>
        <time>2012-07-01T12:32:56Z</time>
      </trkpt>
      <trkpt lat="48.08882" lon="3.30656">
        <ele>100.826797</ele>
        <time>2012-07-01T12:33:18Z</time>
      </trkpt>
      <trkpt lat="48.08882" lon="3.3069">
        <ele>100.988068</ele>
        <time>2012-07-01T12:33:30Z</time>
      </trkpt>
      <trkpt lat="48.08892" lon="3.30722">
        <ele>103.766846</ele>
        <time>2012-07-01T12:33:50Z</time>
      </trkpt>
      <trkpt lat="48.08897" lon="3.30755">
        <ele>108.214096</ele>
        <time>2012-07-01T12:34:07Z</time>
      </trkpt>
      <trkpt lat="48.08905" lon="3.30786">
        <ele>102.270309</ele>
        <time>2012-07-01T12:34:28Z</time>
      </trkpt>
      <trkpt lat="48.08904" lon="3.3082">
        <ele>96.853302</ele>
        <time>2012-07-01T12:34:46Z</time>
      </trkpt>
      <trkpt lat="48.08902" lon="3.30856">
        <ele>97.751205</ele>
        <time>2012-07-01T12:35:11Z</time>
      </trkpt>
      <trkpt lat="48.08901" lon="3.30892">
        <ele>95.839523</ele>
        <time>2012-07-01T12:35:35Z</time>
      </trkpt>
      <trkpt lat="48.08907" lon="3.30929">
        <ele>93.877075</ele>
        <time>2012-07-01T12:35:55Z</time>
      </trkpt>
      <trkpt lat="48.08918" lon="3.30962">
        <ele>95.231476</ele>
        <time>2012-07-01T12:36:07Z</time>
      </trkpt>
      <trkpt lat="48.08917" lon="3.30998">
        <ele>101.986313</ele>
        <time>2012-07-01T12:36:29Z</time>
      </trkpt>
      <trkpt lat="48.0892" lon="3.31032">
        <ele>107.579498</ele>
        <time>2012-07-01T12:36:49Z</time>
      </trkpt>
      <trkpt lat="48.08928" lon="3.31064">
        <ele>114.480545</ele>
        <time>2012-07-01T12:37:06Z</time>
      </trkpt>
      <trkpt lat="48.08945" lon="3.31087">
        <ele>120.832611</ele>
        <time>2012-07-01T12:37:22Z</time>
      </trkpt>
      <trkpt lat="48.08954" lon="3.31121">
        <ele>120.79213</ele>
        <time>2012-07-01T12:37:40Z</time>
      </trkpt>
      <trkpt lat="48.08949" lon="3.31158">
        <ele>120.351135</ele>
        <time>2012-07-01T12:38:05Z</time>
      </trkpt>
      <trkpt lat="48.08954" lon="3.31197">
        <ele>134.53688</ele>
        <time>2012-07-01T12:38:35Z</time>
      </trkpt>
      <trkpt lat="48.08957" lon="3.3123">
        <ele>127.574356</ele>
        <time>2012-07-01T12:38:46Z</time>
      </trkpt>
      <trkpt lat="48.08957" lon="3.31265">
        <ele>107.760498</ele>
        <time>2012-07-01T12:39:02Z</time>
      </trkpt>
      <trkpt lat="48.08947" lon="3.31295">
        <ele>112.060394</ele>
        <time>2012-07-01T12:39:28Z</time>
      </trkpt>
      <trkpt lat="48.08942" lon="3.31329">
        <ele>126.598328</ele>
        <time>2012-07-01T12:39:46Z</time>
      </trkpt>
      <trkpt lat="48.08942" lon="3.31366">
        <ele>120.315567</ele>
        <time>2012-07-01T12:40:05Z</time>
      </trkpt>
      <trkpt lat="48.08941" lon="3.31401">
        <ele>103.062958</ele>
        <time>2012-07-01T12:40:31Z</time>
      </trkpt>
      <trkpt lat="48.08955" lon="3.31428">
        <ele>107.75116</ele>
        <time>2012-07-01T12:40:40Z</time>
      </trkpt>
      <trkpt lat="48.0897" lon="3.31454">
        <ele>112.887894</ele>
        <time>2012-07-01T12:40:55Z</time>
      </trkpt>
      <trkpt lat="48.08984" lon="3.31481">
        <ele>114.814346</ele>
        <time>2012-07-01T12:41:12Z</time>
      </trkpt>
      <trkpt lat="48.08984" lon="3.31516">
        <ele>114.405624</ele>
        <time>2012-07-01T12:41:39Z</time>
      </trkpt>
      <trkpt lat="48.08981" lon="3.3155">
        <ele>121.174881</ele>
        <time>2012-07-01T12:42:04Z</time>
      </trkpt>
      <trkpt lat="48.08976" lon="3.31583">
        <ele>123.281631</ele>
        <time>2012-07-01T12:42:21Z</time>
      </trkpt>
      <trkpt lat="48.08964" lon="3.31613">
        <ele>122.469788</ele>
        <time>2012-07-01T12:42:40Z</time>
      </trkpt>
      <trkpt lat="48.08944" lon="3.31634">
        <ele>131.526245</ele>
        <time>2012-07-01T12:42:59Z</time>
      </trkpt>
      <trkpt lat="48.08933" lon="3.31665">
        <ele>122.151489</ele>
        <time>2012-07-01T12:43:42Z</time>
      </trkpt>
      <trkpt lat="48.08933" lon="3.31699">
        <ele>129.286026</ele>
        <time>2012-07-01T12:43:54Z</time>
      </trkpt>
      <trkpt lat="48.08934" lon="3.31733">
        <ele>132.7827</ele>
        <time>2012-07-01T12:44:09Z</time>
      </trkpt>
      <trkpt lat="48.0893" lon="3.31766">
        <ele>134.438171</ele>
        <time>2012-07-01T12:44:28Z</time>
      </trkpt>
      <trkpt lat="48.08929" lon="3.31801">
        <ele>145.068588</ele>
        <time>2012-07-01T12:45:02Z</time>
      </trkpt>
      <trkpt lat="48.0892" lon="3.31833">
        <ele>163.258621</ele>
        <time>2012-07-01T12:45:26Z</time>
      </trkpt>
      <trkpt lat="48.08913" lon="3.3187">
        <ele>146.09024</ele>
        <time>2012-07-01T12:45:54Z</time>
      </trkpt>
      <trkpt lat="48.08908" lon="3.31905">
        <ele>137.596527</ele>
        <time>2012-07-01T12:46:18Z</time>
      </trkpt>
      <trkpt lat="48.08895" lon="3.31933">
        <ele>154.844513</ele>
        <time>2012-07-01T12:46:38Z</time>
      </trkpt>
      <trkpt lat="48.08876" lon="3.31951">
        <ele>158.021652</ele>
        <time>2012-07-01T12:47:02Z</time>
      </trkpt>
      <trkpt lat="48.08865" lon="3.31918">
        <ele>137.210892</ele>
        <time>2012-07-01T12:47:45Z</time>
      </trkpt>
      <trkpt lat="48.08852" lon="3.3189">
        <ele>137.566238</ele>
        <time>2012-07-01T12:48:05Z</time>
      </trkpt>
      <trkpt lat="48.08837" lon="3.31862">
        <ele>124.726532</ele>
        <time>2012-07-01T12:48:31Z</time>
      </trkpt>
      <trkpt lat="48.08817" lon="3.31845">
        <ele>120.238312</ele>
        <time>2012-07-01T12:48:58Z</time>
      </trkpt>
      <trkpt lat="48.08792" lon="3.31839">
        <ele>141.23674</ele>
        <time>2012-07-01T12:49:24Z</time>
      </trkpt>
      <trkpt lat="48.08769" lon="3.31833">
        <ele>157.021988</ele>
        <time>2012-07-01T12:49:42Z</time>
      </trkpt>
      <trkpt lat="48.08746" lon="3.31825">
        <ele>161.565659</ele>
        <time>2012-07-01T12:50:16Z</time>
      </trkpt>
      <trkpt lat="48.08723" lon="3.31831">
        <ele>166.399933</ele>
        <time>2012-07-01T12:50:38Z</time>
      </trkpt>
      <trkpt lat="48.08699" lon="3.31832">
        <ele>158.935196</ele>
        <time>2012-07-01T12:50:59Z</time>
      </trkpt>
      <trkpt lat="48.08677" lon="3.3183">
        <ele>163.941788</ele>
        <time>2012-07-01T12:51:19Z</time>
      </trkpt>
      <trkpt lat="48.08679" lon="3.31796">
        <ele>164.734634</ele>
        <time>2012-07-01T12:52:54Z</time>
      </trkpt>
      <trkpt lat="48.08682" lon="3.31761">
        <ele>158.892838</ele>
        <time>2012-07-01T12:53:26Z</time>
      </trkpt>
      <trkpt lat="48.0868" lon="3.31727">
        <ele>160.108765</ele>
        <time>2012-07-01T12:53:48Z</time>
      </trkpt>
      <trkpt lat="48.08686" lon="3.31692">
        <ele>171.408096</ele>
        <time>2012-07-01T12:54:10Z</time>
      </trkpt>
      <trkpt lat="48.08691" lon="3.31654">
        <ele>170.234787</ele>
        <time>2012-07-01T12:54:38Z</time>
      </trkpt>
      <trkpt lat="48.0869" lon="3.3162">
        <ele>166.789291</ele>
        <time>2012-07-01T12:54:56Z</time>
      </trkpt>
      <trkpt lat="48.08685" lon="3.31586">
        <ele>167.438385</ele>
        <time>2012-07-01T12:55:15Z</time>
      </trkpt>
      <trkpt lat="48.08678" lon="3.31553">
        <ele>165.438828</ele>
        <time>2012-07-01T12:55:33Z</time>
      </trkpt>
      <trkpt lat="48.08672" lon="3.3152">
        <ele>165.162796</ele>
        <time>2012-07-01T12:55:50Z</time>
      </trkpt>
      <trkpt lat="48.08673" lon="3.31486">
        <ele>164.848953</ele>
        <time>2012-07-01T12:56:09Z</time>
      </trkpt>
      <trkpt lat="48.08669" lon="3.31452">
        <ele>170.133255</ele>
        <time>2012-07-01T12:57:34Z</time>
      </trkpt>
      <trkpt lat="48.08668" lon="3.31415">
        <ele>163.458145</ele>
        <time>2012-07-01T12:57:54Z</time>
      </trkpt>
      <trkpt lat="48.08665" lon="3.31381">
        <ele>160.410263</ele>
        <time>2012-07-01T12:58:13Z</time>
      </trkpt>
      <trkpt lat="48.08661" lon="3.31347">
        <ele>160.451462</ele>
        <time>2012-07-01T12:58:32Z</time>
      </trkpt>
      <trkpt lat="48.08661" lon="3.31313">
        <ele>167.832535</ele>
        <time>2012-07-01T12:59:31Z</time>
      </trkpt>
      <trkpt lat="48.08652" lon="3.31281">
        <ele>166.455612</ele>
        <time>2012-07-01T12:59:48Z</time>
      </trkpt>
      <trkpt lat="48.08645" lon="3.31248">
        <ele>162.313919</ele>
        <time>2012-07-01T13:00:12Z</time>
      </trkpt>
      <trkpt lat="48.08641" lon="3.31215">
        <ele>160.803513</ele>
        <time>2012-07-01T13:00:34Z</time>
      </trkpt>
      <trkpt lat="48.08638" lon="3.31181">
        <ele>157.028671</ele>
        <time>2012-07-01T13:00:53Z</time>
      </trkpt>
      <trkpt lat="48.08633" lon="3.31147">
        <ele>162.741684</ele>
        <time>2012-07-01T13:01:15Z</time>
      </trkpt>
      <trkpt lat="48.08633" lon="3.31112">
        <ele>152.550186</ele>
        <time>2012-07-01T13:01:40Z</time>
      </trkpt>
      <trkpt lat="48.08628" lon="3.31079">
        <ele>156.381378</ele>
        <time>2012-07-01T13:02:25Z</time>
      </trkpt>
      <trkpt lat="48.0863" lon="3.31046">
        <ele>155.603989</ele>
        <time>2012-07-01T13:02:46Z</time>
      </trkpt>
      <trkpt lat="48.08624" lon="3.3101">
        <ele>141.283295</ele>
        <time>2012-07-01T13:03:14Z</time>
      </trkpt>
      <trkpt lat="48.08624" lon="3.30976">
        <ele>148.427094</ele>
        <time>2012-07-01T13:03:30Z</time>
      </trkpt>
      <trkpt lat="48.08612" lon="3.30947">
        <ele>146.554642</ele>
        <time>2012-07-01T13:03:51Z</time>
      </trkpt>
      <trkpt lat="48.086" lon="3.30918">
        <ele>146.169937</ele>
        <time>2012-07-01T13:04:14Z</time>
      </trkpt>
      <trkpt lat="48.08586" lon="3.3089">
        <ele>142.728195</ele>
        <time>2012-07-01T13:04:32Z</time>
      </trkpt>
      <trkpt lat="48.08569" lon="3.30864">
        <ele>133.072495</ele>
        <time>2012-07-01T13:04:56Z</time>
      </trkpt>
      <trkpt lat="48.08552" lon="3.30839">
        <ele>142.265244</ele>
        <time>2012-07-01T13:05:22Z</time>
      </trkpt>
      <trkpt lat="48.08539" lon="3.30808">
        <ele>140.763229</ele>
        <time>2012-07-01T13:06:04Z</time>
      </trkpt>
      <trkpt lat="48.0853" lon="3.30777">
        <ele>133.426956</ele>
        <time>2012-07-01T13:06:35Z</time>
      </trkpt>
      <trkpt lat="48.08528" lon="3.30744">
        <ele>129.817276</ele>
        <time>2012-07-01T13:06:57Z</time>
      </trkpt>
      <trkpt lat="48.0852" lon="3.30707">
        <ele>129.437256</ele>
        <time>2012-07-01T13:07:28Z</time>
      </trkpt>
      <trkpt lat="48.08523" lon="3.30672">
        <ele>114.957397</ele>
        <time>2012-07-01T13:08:38Z</time>
      </trkpt>
      <trkpt lat="48.08516" lon="3.30637">
        <ele>116.029633</ele>
        <time>2012-07-01T13:09:00Z</time>
      </trkpt>
      <trkpt lat="48.08516" lon="3.30602">
        <ele>122.674561</ele>
        <time>2012-07-01T13:09:22Z</time>
      </trkpt>
      <trkpt lat="48.08513" lon="3.30567">
        <ele>121.616257</ele>
        <time>2012-07-01T13:10:01Z</time>
      </trkpt>
      <trkpt lat="48.08513" lon="3.3053">
        <ele>109.821381</ele>
        <time>2012-07-01T13:10:29Z</time>
      </trkpt>
      <trkpt lat="48.08517" lon="3.30493">
        <ele>97.399277</ele>
        <time>2012-07-01T13:11:00Z</time>
      </trkpt>
      <trkpt lat="48.08513" lon="3.30458">
        <ele>121.96051</ele>
        <time>2012-07-01T13:11:20Z</time>
      </trkpt>
      <trkpt lat="48.08514" lon="3.30417">
        <ele>123.577972</ele>
        <time>2012-07-01T13:11:44Z</time>
      </trkpt>
      <trkpt lat="48.08508" lon="3.30384">
        <ele>106.151871</ele>
        <time>2012-07-01T13:12:38Z</time>
      </trkpt>
      <trkpt lat="48.08508" lon="3.30348">
        <ele>108.532608</ele>
        <time>2012-07-01T13:12:47Z</time>
      </trkpt>
      <trkpt lat="48.08512" lon="3.30315">
        <ele>97.412155</ele>
        <time>2012-07-01T13:13:13Z</time>
      </trkpt>
      <trkpt lat="48.08523" lon="3.30285">
        <ele>99.849243</ele>
        <time>2012-07-01T13:13:39Z</time>
      </trkpt>
      <trkpt lat="48.08535" lon="3.30254">
        <ele>80.518219</ele>
        <time>2012-07-01T13:14:00Z</time>
      </trkpt>
      <trkpt lat="48.08554" lon="3.30234">
        <ele>87.401443</ele>
        <time>2012-07-01T13:14:20Z</time>
      </trkpt>
      <trkpt lat="48.08578" lon="3.30227">
        <ele>85.496429</ele>
        <time>2012-07-01T13:14:40Z</time>
      </trkpt>
      <trkpt lat="48.08595" lon="3.30204">
        <ele>88.180832</ele>
        <time>2012-07-01T13:15:09Z</time>
      </trkpt>
      <trkpt lat="48.08619" lon="3.30201">
        <ele>83.700653</ele>
        <time>2012-07-01T13:18:22Z</time>
      </trkpt>
      <trkpt lat="48.08638" lon="3.30182">
        <ele>94.439529</ele>
        <time>2012-07-01T13:18:43Z</time>
      </trkpt>
      <trkpt lat="48.08662" lon="3.3017">
        <ele>83.53743</ele>
        <time>2012-07-01T13:19:11Z</time>
      </trkpt>
      <trkpt lat="48.0868" lon="3.30142">
        <ele>93.043976</ele>
        <time>2012-07-01T13:19:35Z</time>
      </trkpt>
      <trkpt lat="48.08702" lon="3.30122">
        <ele>86.211487</ele>
        <time>2012-07-01T13:19:57Z</time>
      </trkpt>
      <trkpt lat="48.08724" lon="3.3011">
        <ele>84.08783</ele>
        <time>2012-07-01T13:20:13Z</time>
      </trkpt>
      <trkpt lat="48.08744" lon="3.30089">
        <ele>81.707062</ele>
        <time>2012-07-01T13:20:32Z</time>
      </trkpt>
      <trkpt lat="48.08763" lon="3.30067">
        <ele>77.119888</ele>
        <time>2012-07-01T13:20:55Z</time>
      </trkpt>
      <trkpt lat="48.0878" lon="3.30043">
        <ele>67.465782</ele>
        <time>2012-07-01T13:21:14Z</time>
      </trkpt>
      <trkpt lat="48.08762" lon="3.3008">
        <ele>86.273834</ele>
        <time>2012-07-01T13:22:32Z</time>
      </trkpt>
      <trkpt lat="48.08746" lon="3.30033">
        <ele>85.330124</ele>
        <time>2012-07-01T13:22:38Z</time>
      </trkpt>
      <trkpt lat="48.08727" lon="3.29992">
        <ele>86.162842</ele>
        <time>2012-07-01T13:22:54Z</time>
      </trkpt>
      <trkpt lat="48.08715" lon="3.2996">
        <ele>82.872482</ele>
        <time>2012-07-01T13:23:01Z</time>
      </trkpt>
      <trkpt lat="48.08697" lon="3.29936">
        <ele>86.306915</ele>
        <time>2012-07-01T13:23:12Z</time>
      </trkpt>
      <trkpt lat="48.0868" lon="3.29913">
        <ele>80.643341</ele>
        <time>2012-07-01T13:23:29Z</time>
      </trkpt>
      <trkpt lat="48.08663" lon="3.29889">
        <ele>80.252258</ele>
        <time>2012-07-01T13:23:44Z</time>
      </trkpt>
      <trkpt lat="48.08646" lon="3.29862">
        <ele>80.701508</ele>
        <time>2012-07-01T13:23:57Z</time>
      </trkpt>
      <trkpt lat="48.08624" lon="3.29847">
        <ele>83.765274</ele>
        <time>2012-07-01T13:24:16Z</time>
      </trkpt>
      <trkpt lat="48.08618" lon="3.2988">
        <ele>63.569794</ele>
        <time>2012-07-01T13:25:03Z</time>
      </trkpt>
      <trkpt lat="48.08611" lon="3.29914">
        <ele>63.558235</ele>
        <time>2012-07-01T13:25:23Z</time>
      </trkpt>
      <trkpt lat="48.08603" lon="3.29948">
        <ele>61.993195</ele>
        <time>2012-07-01T13:25:39Z</time>
      </trkpt>
      <trkpt lat="48.08592" lon="3.2998">
        <ele>66.959381</ele>
        <time>2012-07-01T13:25:56Z</time>
      </trkpt>
      <trkpt lat="48.08578" lon="3.30008">
        <ele>69.980469</ele>
        <time>2012-07-01T13:26:17Z</time>
      </trkpt>
      <trkpt lat="48.08555" lon="3.30012">
        <ele>84.689667</ele>
        <time>2012-07-01T13:26:39Z</time>
      </trkpt>
      <trkpt lat="48.08536" lon="3.29992">
        <ele>70.578506</ele>
        <time>2012-07-01T13:26:55Z</time>
      </trkpt>
      <trkpt lat="48.08515" lon="3.29978">
        <ele>83.661896</ele>
        <time>2012-07-01T13:27:09Z</time>
      </trkpt>
      <trkpt lat="48.08493" lon="3.29966">
        <ele>77.643372</ele>
        <time>2012-07-01T13:27:29Z</time>
      </trkpt>
      <trkpt lat="48.08472" lon="3.29954">
        <ele>84.207184</ele>
        <time>2012-07-01T13:27:50Z</time>
      </trkpt>
      <trkpt lat="48.0845" lon="3.29937">
        <ele>79.770782</ele>
        <time>2012-07-01T13:28:11Z</time>
      </trkpt>
      <trkpt lat="48.08431" lon="3.29916">
        <ele>71.668457</ele>
        <time>2012-07-01T13:28:32Z</time>
      </trkpt>
      <trkpt lat="48.08409" lon="3.29906">
        <ele>58.86602</ele>
        <time>2012-07-01T13:28:56Z</time>
      </trkpt>
      <trkpt lat="48.08384" lon="3.2991">
        <ele>81.500961</ele>
        <time>2012-07-01T13:31:35Z</time>
      </trkpt>
      <trkpt lat="48.0836" lon="3.29918">
        <ele>63.974121</ele>
        <time>2012-07-01T13:32:01Z</time>
      </trkpt>
      <trkpt lat="48.08338" lon="3.2993">
        <ele>62.385796</ele>
        <time>2012-07-01T13:32:17Z</time>
      </trkpt>
      <trkpt lat="48.08318" lon="3.29947">
        <ele>62.93119</ele>
        <time>2012-07-01T13:32:34Z</time>
      </trkpt>
      <trkpt lat="48.08293" lon="3.29951">
        <ele>66.141518</ele>
        <time>2012-07-01T13:33:21Z</time>
      </trkpt>
      <trkpt lat="48.08272" lon="3.29937">
        <ele>66.459427</ele>
        <time>2012-07-01T13:33:32Z</time>
      </trkpt>
      <trkpt lat="48.08249" lon="3.29934">
        <ele>76.315605</ele>
        <time>2012-07-01T13:33:44Z</time>
      </trkpt>
      <trkpt lat="48.08225" lon="3.29923">
        <ele>64.662994</ele>
        <time>2012-07-01T13:34:04Z</time>
      </trkpt>
      <trkpt lat="48.08202" lon="3.29923">
        <ele>64.034431</ele>
        <time>2012-07-01T13:34:25Z</time>
      </trkpt>
      <trkpt lat="48.08174" lon="3.29918">
        <ele>69.15094</ele>
        <time>2012-07-01T13:34:47Z</time>
      </trkpt>
      <trkpt lat="48.0815" lon="3.29924">
        <ele>69.805557</ele>
        <time>2012-07-01T13:35:02Z</time>
      </trkpt>
      <trkpt lat="48.08126" lon="3.29924">
        <ele>71.168884</ele>
        <time>2012-07-01T13:35:24Z</time>
      </trkpt>
      <trkpt lat="48.081" lon="3.29925">
        <ele>69.837524</ele>
        <time>2012-07-01T13:35:48Z</time>
      </trkpt>
      <trkpt lat="48.08078" lon="3.29918">
        <ele>64.493759</ele>
        <time>2012-07-01T13:36:03Z</time>
      </trkpt>
      <trkpt lat="48.08056" lon="3.29915">
        <ele>69.432678</ele>
        <time>2012-07-01T13:36:24Z</time>
      </trkpt>
      <trkpt lat="48.08038" lon="3.29892">
        <ele>76.649948</ele>
        <time>2012-07-01T13:36:43Z</time>
      </trkpt>
      <trkpt lat="48.08031" lon="3.29859">
        <ele>81.573166</ele>
        <time>2012-07-01T13:37:00Z</time>
      </trkpt>
      <trkpt lat="48.08025" lon="3.29827">
        <ele>89.970139</ele>
        <time>2012-07-01T13:37:23Z</time>
      </trkpt>
      <trkpt lat="48.08028" lon="3.29792">
        <ele>72.690849</ele>
        <time>2012-07-01T13:37:41Z</time>
      </trkpt>
      <trkpt lat="48.08027" lon="3.29757">
        <ele>79.438164</ele>
        <time>2012-07-01T13:38:06Z</time>
      </trkpt>
      <trkpt lat="48.08025" lon="3.29723">
        <ele>80.814682</ele>
        <time>2012-07-01T13:38:33Z</time>
      </trkpt>
      <trkpt lat="48.08024" lon="3.29683">
        <ele>84.126297</ele>
        <time>2012-07-01T13:38:46Z</time>
      </trkpt>
      <trkpt lat="48.08021" lon="3.2965">
        <ele>77.648468</ele>
        <time>2012-07-01T13:39:01Z</time>
      </trkpt>
      <trkpt lat="48.08009" lon="3.29618">
        <ele>74.46254</ele>
        <time>2012-07-01T13:39:17Z</time>
      </trkpt>
      <trkpt lat="48.08001" lon="3.29586">
        <ele>64.449974</ele>
        <time>2012-07-01T13:39:35Z</time>
      </trkpt>
      <trkpt lat="48.07995" lon="3.29554">
        <ele>73.31958</ele>
        <time>2012-07-01T13:40:00Z</time>
      </trkpt>
      <trkpt lat="48.07992" lon="3.29519">
        <ele>77.545822</ele>
        <time>2012-07-01T13:40:18Z</time>
      </trkpt>
      <trkpt lat="48.07986" lon="3.29484">
        <ele>78.217194</ele>
        <time>2012-07-01T13:40:41Z</time>
      </trkpt>
      <trkpt lat="48.07992" lon="3.29448">
        <ele>71.633438</ele>
        <time>2012-07-01T13:41:05Z</time>
      </trkpt>
      <trkpt lat="48.07999" lon="3.29415">
        <ele>67.46138</ele>
        <time>2012-07-01T13:41:21Z</time>
      </trkpt>
      <trkpt lat="48.08" lon="3.29381">
        <ele>71.71022</ele>
        <time>2012-07-01T13:41:44Z</time>
      </trkpt>
      <trkpt lat="48.07997" lon="3.29348">
        <ele>66.276642</ele>
        <time>2012-07-01T13:42:06Z</time>
      </trkpt>
      <trkpt lat="48.07994" lon="3.29314">
        <ele>72.774979</ele>
        <time>2012-07-01T13:42:24Z</time>
      </trkpt>
      <trkpt lat="48.08007" lon="3.29285">
        <ele>72.428589</ele>
        <time>2012-07-01T13:42:41Z</time>
      </trkpt>
      <trkpt lat="48.08014" lon="3.29251">
        <ele>73.982117</ele>
        <time>2012-07-01T13:43:00Z</time>
      </trkpt>
      <trkpt lat="48.08024" lon="3.29219">
        <ele>74.193169</ele>
        <time>2012-07-01T13:43:22Z</time>
      </trkpt>
      <trkpt lat="48.08025" lon="3.29185">
        <ele>80.483994</ele>
        <time>2012-07-01T13:43:49Z</time>
      </trkpt>
      <trkpt lat="48.08034" lon="3.29152">
        <ele>70.753677</ele>
        <time>2012-07-01T13:44:09Z</time>
      </trkpt>
      <trkpt lat="48.08033" lon="3.29118">
        <ele>68.945503</ele>
        <time>2012-07-01T13:44:36Z</time>
      </trkpt>
      <trkpt lat="48.08054" lon="3.29104">
        <ele>63.926956</ele>
        <time>2012-07-01T13:46:04Z</time>
      </trkpt>
      <trkpt lat="48.08077" lon="3.29106">
        <ele>63.650536</ele>
        <time>2012-07-01T13:46:31Z</time>
      </trkpt>
      <trkpt lat="48.08094" lon="3.29132">
        <ele>83.073257</ele>
        <time>2012-07-01T13:46:52Z</time>
      </trkpt>
      <trkpt lat="48.0811" lon="3.29155">
        <ele>74.60038</ele>
        <time>2012-07-01T13:47:10Z</time>
      </trkpt>
      <trkpt lat="48.08129" lon="3.29175">
        <ele>69.925186</ele>
        <time>2012-07-01T13:47:29Z</time>
      </trkpt>
      <trkpt lat="48.08145" lon="3.292">
        <ele>73.142456</ele>
        <time>2012-07-01T13:47:52Z</time>
      </trkpt>
      <trkpt lat="48.08163" lon="3.29222">
        <ele>68.899506</ele>
        <time>2012-07-01T13:48:13Z</time>
      </trkpt>
      <trkpt lat="48.08183" lon="3.2924">
        <ele>75.503944</ele>
        <time>2012-07-01T13:48:33Z</time>
      </trkpt>
      <trkpt lat="48.08201" lon="3.29262">
        <ele>61.700905</ele>
        <time>2012-07-01T13:48:53Z</time>
      </trkpt>
      <trkpt lat="48.08225" lon="3.2926">
        <ele>69.18454</ele>
        <time>2012-07-01T13:49:58Z</time>
      </trkpt>
      <trkpt lat="48.08244" lon="3.2928">
        <ele>72.600189</ele>
        <time>2012-07-01T13:50:19Z</time>
      </trkpt>
      <trkpt lat="48.08265" lon="3.29293">
        <ele>72.631599</ele>
        <time>2012-07-01T13:50:41Z</time>
      </trkpt>
      <trkpt lat="48.08286" lon="3.2931">
        <ele>68.574532</ele>
        <time>2012-07-01T13:51:00Z</time>
      </trkpt>
      <trkpt lat="48.08309" lon="3.29316">
        <ele>64.496979</ele>
        <time>2012-07-01T13:51:21Z</time>
      </trkpt>
      <trkpt lat="48.08332" lon="3.29321">
        <ele>64.218117</ele>
        <time>2012-07-01T13:51:43Z</time>
      </trkpt>
      <trkpt lat="48.08355" lon="3.29324">
        <ele>68.189117</ele>
        <time>2012-07-01T13:52:04Z</time>
      </trkpt>
      <trkpt lat="48.08378" lon="3.29325">
        <ele>65.832733</ele>
        <time>2012-07-01T13:52:25Z</time>
      </trkpt>
      <trkpt lat="48.08401" lon="3.29327">
        <ele>64.758812</ele>
        <time>2012-07-01T13:52:46Z</time>
      </trkpt>
      <trkpt lat="48.08424" lon="3.29325">
        <ele>57.898674</ele>
        <time>2012-07-01T13:53:05Z</time>
      </trkpt>
      <trkpt lat="48.08447" lon="3.29323">
        <ele>68.243408</ele>
        <time>2012-07-01T13:53:26Z</time>
      </trkpt>
      <trkpt lat="48.0847" lon="3.29317">
        <ele>65.083672</ele>
        <time>2012-07-01T13:53:50Z</time>
      </trkpt>
      <trkpt lat="48.08493" lon="3.29315">
        <ele>64.728836</ele>
        <time>2012-07-01T13:54:11Z</time>
      </trkpt>
      <trkpt lat="48.08516" lon="3.2931">
        <ele>64.759995</ele>
        <time>2012-07-01T13:54:30Z</time>
      </trkpt>
    </trkseg>
  </trk>
</gpx>